createdAt,value
2018-04-22T00:02:03.654Z,15.7
2018-04-22T00:07:03.182Z,15.6
2018-04-22T00:12:02.839Z,15.6
2018-04-22T00:17:03.468Z,15.6
2018-04-22T00:22:03.388Z,15.5
2018-04-22T00:27:02.910Z,15.5
2018-04-22T00:32:03.577Z,15.4
2018-04-22T00:37:03.114Z,15.4
2018-04-22T00:42:02.731Z,15.3
2018-04-22T00:47:03.413Z,15.2
2018-04-22T00:52:02.905Z,15.2
2018-04-22T00:57:03.451Z,15.1
2018-04-22T01:02:03.125Z,14.9
2018-04-22T01:07:03.647Z,14.8
2018-04-22T01:12:03.379Z,14.8
2018-04-22T01:17:03.214Z,14.7
2018-04-22T01:22:02.811Z,14.5
2018-04-22T01:27:03.448Z,14.5
2018-04-22T01:32:02.815Z,14.4
2018-04-22T01:37:03.100Z,14.2
2018-04-22T01:42:02.679Z,14.2
2018-04-22T01:47:03.164Z,14.1
2018-04-22T01:52:02.932Z,14.1
2018-04-22T01:57:03.535Z,14.0
2018-04-22T02:02:03.030Z,13.8
2018-04-22T02:07:03.529Z,13.8
2018-04-22T02:12:02.983Z,13.7
2018-04-22T02:17:03.542Z,13.6
2018-04-22T02:22:03.359Z,13.6
2018-04-22T02:27:03.219Z,13.6
2018-04-22T02:32:02.799Z,13.5
2018-04-22T02:37:02.912Z,13.4
2018-04-22T02:42:02.987Z,13.4
2018-04-22T02:47:03.213Z,13.2
2018-04-22T02:52:03.220Z,13.2
2018-04-22T02:57:03.279Z,13.1
2018-04-22T03:02:03.415Z,13.1
2018-04-22T03:07:03.611Z,13.0
2018-04-22T03:12:02.916Z,13.0
2018-04-22T03:17:03.309Z,13.0
2018-04-22T03:22:03.272Z,12.9
2018-04-22T03:27:03.302Z,12.9
2018-04-22T03:32:03.508Z,12.9
2018-04-22T03:37:03.643Z,12.8
2018-04-22T03:42:02.788Z,12.8
2018-04-22T03:47:14.175Z,12.8
2018-04-22T03:52:03.205Z,12.6
2018-04-22T03:57:03.424Z,12.6
2018-04-22T04:02:13.257Z,12.4
2018-04-22T04:07:03.030Z,12.4
2018-04-22T04:12:03.268Z,12.3
2018-04-22T04:17:14.123Z,12.2
2018-04-22T04:22:03.087Z,12.2
2018-04-22T04:27:03.251Z,11.9
2018-04-22T04:32:12.882Z,12.0
2018-04-22T04:37:02.642Z,11.9
2018-04-22T04:42:02.846Z,12.1
2018-04-22T04:47:14.061Z,12.0
2018-04-22T04:52:02.825Z,12.2
2018-04-22T04:57:02.970Z,12.2
2018-04-22T05:02:11.262Z,12.6
2018-04-22T05:07:03.338Z,12.8
2018-04-22T05:12:02.638Z,12.8
2018-04-22T05:17:13.171Z,13.1
2018-04-22T05:22:03.127Z,13.0
2018-04-22T05:27:03.343Z,13.1
2018-04-22T05:32:13.701Z,13.2
2018-04-22T05:37:02.762Z,13.4
2018-04-22T05:42:03.071Z,13.7
2018-04-22T05:47:13.726Z,14.1
2018-04-22T05:52:02.740Z,14.1
2018-04-22T05:57:03.014Z,14.4
2018-04-22T06:02:13.801Z,14.9
2018-04-22T06:07:03.548Z,15.2
2018-04-22T06:12:02.917Z,15.2
2018-04-22T06:17:13.664Z,15.5
2018-04-22T06:22:03.562Z,15.8
2018-04-22T06:27:02.866Z,16.3
2018-04-22T06:32:12.517Z,16.6
2018-04-22T06:37:03.431Z,16.6
2018-04-22T06:42:02.630Z,17.2
2018-04-22T06:47:13.547Z,17.5
2018-04-22T06:52:03.123Z,17.5
2018-04-22T06:57:03.404Z,17.8
2018-04-22T07:02:13.796Z,18.0
2018-04-22T07:07:02.976Z,18.0
2018-04-22T07:12:03.338Z,18.3
2018-04-22T07:17:13.778Z,18.5
2018-04-22T07:22:02.711Z,18.6
2018-04-22T07:27:02.906Z,18.6
2018-04-22T07:32:13.498Z,18.8
2018-04-22T07:37:03.278Z,19.4
2018-04-22T07:42:03.473Z,19.6
2018-04-22T07:47:13.230Z,19.9
2018-04-22T07:52:03.114Z,20.7
2018-04-22T07:57:03.328Z,20.7
2018-04-22T08:02:18.005Z,22.0
2018-04-22T08:07:03.003Z,22.1
2018-04-22T08:12:03.336Z,23.5
2018-04-22T08:17:03.661Z,23.5
2018-04-22T08:22:02.919Z,23.9
2018-04-22T08:27:03.103Z,23.5
2018-04-22T08:32:13.250Z,23.8
2018-04-22T08:37:03.530Z,24.3
2018-04-22T08:42:02.693Z,25.3
2018-04-22T08:47:13.354Z,25.8
2018-04-22T08:52:03.217Z,25.7
2018-04-22T08:57:03.425Z,26.3
2018-04-22T09:02:13.882Z,26.7
2018-04-22T09:07:03.026Z,27.5
2018-04-22T09:12:03.363Z,27.9
2018-04-22T09:17:13.511Z,28.3
2018-04-22T09:22:03.023Z,28.2
2018-04-22T09:27:03.208Z,28.6
2018-04-22T09:32:13.847Z,28.9
2018-04-22T09:37:02.706Z,29.2
2018-04-22T09:42:02.930Z,29.2
2018-04-22T09:47:13.680Z,29.6
2018-04-22T09:52:03.225Z,29.7
2018-04-22T09:57:03.398Z,29.7
2018-04-22T10:02:13.721Z,29.9
2018-04-22T10:07:03.517Z,29.9
2018-04-22T10:12:03.005Z,29.9
2018-04-22T10:17:13.962Z,29.9
2018-04-22T10:22:03.553Z,30.4
2018-04-22T10:27:02.797Z,30.4
2018-04-22T10:32:10.615Z,30.7
2018-04-22T10:37:03.029Z,30.7
2018-04-22T10:42:03.293Z,30.7
2018-04-22T10:47:13.606Z,31.1
2018-04-22T10:52:03.076Z,31.2
2018-04-22T10:57:03.380Z,31.2
2018-04-22T11:02:08.900Z,31.1
2018-04-22T11:07:03.366Z,31.2
2018-04-22T11:12:02.756Z,31.3
2018-04-22T11:17:10.428Z,31.0
2018-04-22T11:22:03.127Z,31.4
2018-04-22T11:27:03.409Z,31.4
2018-04-22T11:32:14.290Z,31.9
2018-04-22T11:37:03.315Z,32.3
2018-04-22T11:42:03.537Z,32.6
2018-04-22T11:47:12.783Z,32.8
2018-04-22T11:52:03.422Z,32.7
2018-04-22T11:57:02.715Z,32.7
2018-04-22T12:02:13.998Z,32.8
2018-04-22T12:07:03.476Z,31.9
2018-04-22T12:12:02.913Z,31.9
2018-04-22T12:17:13.539Z,32.0
2018-04-22T12:22:03.081Z,32.8
2018-04-22T12:27:03.356Z,33.2
2018-04-22T12:32:13.733Z,33.2
2018-04-22T12:37:03.484Z,33.2
2018-04-22T12:42:02.681Z,33.6
2018-04-22T12:47:16.375Z,33.8
2018-04-22T12:52:03.501Z,34.0
2018-04-22T12:57:02.720Z,34.1
2018-04-22T13:02:10.542Z,34.2
2018-04-22T13:07:03.135Z,34.2
2018-04-22T13:12:03.488Z,33.6
2018-04-22T13:17:14.033Z,33.0
2018-04-22T13:22:03.115Z,33.4
2018-04-22T13:27:03.390Z,33.4
2018-04-22T13:32:17.071Z,33.3
2018-04-22T13:37:03.319Z,33.2
2018-04-22T13:42:03.512Z,33.0
2018-04-22T13:47:09.805Z,33.0
2018-04-22T13:52:02.731Z,33.6
2018-04-22T13:57:03.328Z,33.6
2018-04-22T14:02:10.842Z,33.6
2018-04-22T14:07:03.494Z,33.6
2018-04-22T14:12:03.015Z,34.0
2018-04-22T14:17:08.572Z,34.3
2018-04-22T14:22:02.893Z,34.8
2018-04-22T14:27:02.960Z,34.8
2018-04-22T14:32:09.716Z,33.7
2018-04-22T14:37:03.341Z,34.2
2018-04-22T14:42:03.417Z,34.2
2018-04-22T14:47:15.395Z,36.9
2018-04-22T14:52:02.902Z,40.7
2018-04-22T14:57:03.095Z,40.7
2018-04-22T15:02:11.277Z,42.8
2018-04-22T15:07:03.457Z,43.7
2018-04-22T15:12:02.685Z,44.6
2018-04-22T15:17:12.027Z,45.0
2018-04-22T15:22:03.177Z,45.1
2018-04-22T15:27:03.339Z,45.1
2018-04-22T15:32:16.080Z,46.2
2018-04-22T15:37:02.620Z,49.0
2018-04-22T15:42:02.776Z,48.9
2018-04-22T15:47:10.807Z,49.4
2018-04-22T15:52:03.164Z,49.4
2018-04-22T15:57:03.286Z,49.2
2018-04-22T16:02:10.445Z,48.7
2018-04-22T16:07:02.785Z,48.2
2018-04-22T16:12:03.021Z,48.2
2018-04-22T16:17:12.310Z,48.4
2018-04-22T16:22:03.528Z,48.3
2018-04-22T16:27:03.682Z,48.6
2018-04-22T16:32:19.697Z,47.7
2018-04-22T16:37:03.067Z,46.7
2018-04-22T16:42:03.275Z,46.7
2018-04-22T16:47:13.580Z,44.5
2018-04-22T16:52:02.657Z,38.1
2018-04-22T16:57:02.926Z,36.2
2018-04-22T17:02:17.553Z,34.7
2018-04-22T17:07:03.340Z,32.8
2018-04-22T17:12:03.552Z,32.8
2018-04-22T17:17:13.384Z,30.8
2018-04-22T17:22:03.597Z,30.1
2018-04-22T17:27:02.697Z,29.6
2018-04-22T17:32:12.278Z,29.2
2018-04-22T17:37:03.267Z,29.7
2018-04-22T17:42:03.341Z,28.9
2018-04-22T17:47:04.675Z,28.8
2018-04-22T17:52:03.455Z,28.0
2018-04-22T17:57:03.359Z,27.4
2018-04-22T18:02:03.628Z,26.5
2018-04-22T18:07:03.085Z,26.5
2018-04-22T18:12:03.441Z,26.2
2018-04-22T18:17:03.692Z,25.6
2018-04-22T18:22:02.818Z,25.5
2018-04-22T18:27:03.628Z,25.4
2018-04-22T18:32:03.184Z,25.1
2018-04-22T18:37:03.241Z,24.8
2018-04-22T18:42:03.326Z,24.3
2018-04-22T18:47:02.919Z,24.3
2018-04-22T18:52:03.547Z,24.2
2018-04-22T18:57:03.491Z,24.0
2018-04-22T19:02:02.944Z,23.7
2018-04-22T19:07:03.093Z,23.7
2018-04-22T19:12:03.398Z,23.5
2018-04-22T19:17:03.738Z,23.4
2018-04-22T19:22:03.596Z,23.3
2018-04-22T19:27:02.849Z,23.2
2018-04-22T19:32:06.654Z,23.1
2018-04-22T19:37:03.290Z,23.1
2018-04-22T19:42:03.341Z,22.8
2018-04-22T19:47:03.599Z,22.7
2018-04-22T19:52:03.441Z,22.6
2018-04-22T19:57:03.531Z,22.5
2018-04-22T20:02:02.779Z,22.2
2018-04-22T20:07:03.032Z,22.0
2018-04-22T20:12:03.198Z,21.8
2018-04-22T20:17:03.332Z,21.8
2018-04-22T20:22:03.458Z,21.6
2018-04-22T20:27:03.628Z,21.4
2018-04-22T20:32:02.724Z,21.2
2018-04-22T20:37:02.990Z,21.0
2018-04-22T20:42:03.084Z,20.7
2018-04-22T20:47:03.126Z,20.7
2018-04-22T20:52:03.269Z,20.6
2018-04-22T20:57:03.452Z,20.4
2018-04-22T21:02:03.597Z,20.2
2018-04-22T21:07:02.936Z,20.1
2018-04-22T21:12:03.220Z,19.8
2018-04-22T21:17:03.871Z,19.8
2018-04-22T21:22:03.506Z,19.6
2018-04-22T21:27:03.576Z,19.5
2018-04-22T21:32:02.774Z,19.6
2018-04-22T21:37:02.960Z,19.5
2018-04-22T21:42:03.037Z,19.4
2018-04-22T21:47:03.147Z,19.3
2018-04-22T21:52:03.111Z,19.3
2018-04-22T21:57:03.278Z,19.2
2018-04-22T22:02:03.947Z,19.2
2018-04-22T22:07:02.920Z,19.2
2018-04-22T22:12:03.582Z,19.2
2018-04-22T22:22:03.566Z,19.2
2018-04-22T22:27:03.643Z,19.3
2018-04-22T22:32:03.243Z,19.2
2018-04-22T22:37:03.633Z,19.3
2018-04-22T22:42:03.115Z,19.3
2018-04-22T22:47:03.586Z,19.4
2018-04-22T22:52:02.977Z,19.4
2018-04-22T22:57:03.391Z,19.4
2018-04-22T23:02:02.968Z,19.4
2018-04-22T23:07:02.850Z,19.4
2018-04-22T23:12:03.361Z,19.3
2018-04-22T23:17:03.007Z,19.3
2018-04-22T23:22:02.900Z,19.2
2018-04-22T23:27:03.427Z,19.3
2018-04-22T23:32:02.895Z,19.3
2018-04-22T23:37:02.878Z,19.2
2018-04-22T23:42:03.420Z,19.2
2018-04-22T23:47:02.852Z,19.1
2018-04-22T23:52:02.833Z,19.0
2018-04-22T23:57:03.370Z,19.0
